Ackerly, Texas
Current Conditions -  °F | °C
As of 1:35 AM on Sunday 26 Oct 2014 (Local Time) from KBPG Reporting Station
Clear Clear  
Wind Chill: 65°   Ceiling: Unl
Heat Index: 65°   Visibility: 10mi
Dew Point: 54°   Wind: 10mph
Humidity: 68%   Direction: 150°SSE
Pressure: 30.1"   Gusts: NA
Location:  32.53°N, 101.72°W
Report Text: KBPG 260635Z AUTO 15009KT 10SM CLR 18/12 A3010 RMK AO2 T01820121
Loading
Personal Weather Stations






























Interactive Weather Map
Tropical Storm Tracking
New forecast layout! Learn more

10-Day Weather Forecast

Advertisements
Track Severe Weather on mobile